Terminal Aerodrome Forecast
Issued by NWS

Home | Current Version | Previous Version | Text Only | Print | Product List | Glossary On
Versions: 1 2 3 4 5 6 7 8 9 10 11 12 13
000
FTUS46 KMTR 291739
TAFSJC
TAF
KSJC 291739Z 2918/3018 30004KT P6SM FEW050
     FM291900 31006KT P6SM FEW080
     FM292300 29010KT P6SM FEW080
     FM300600 30005KT P6SM FEW080
     FM301000 VRB03KT P6SM FEW007 FEW050
     FM301700 13004KT P6SM FEW008 SCT050=

USA.gov is the U.S. government's official web portal to all federal, state and local government web resources and services.